Delano, Tennessee
Current Conditions -  °F | °C
As of 2:15 AM on Friday 28 Nov 2014 (Local Time) from KMMI Reporting Station
Overcast Overcast  
Wind Chill: 22°   Ceiling: 3600
Heat Index: 28°   Visibility: 10mi
Dew Point: 19°   Wind: 6mph
Humidity: 69%   Direction: 330°NNW
Pressure: 30.42"   Gusts: NA
Location:  35.27°N, 84.55°W
Report Text: KMMI 280715Z AUTO 33005KT 10SM OVC036 M02/M07 A3042 RMK
Loading
Personal Weather Stations






























Interactive Weather Map New forecast layout! Learn more

10-Day Weather Forecast

Advertisements
Track Severe Weather on mobile